首页
METAR-TAF:

METAR-TAF

机场 :

New Bern, 北卡罗来纳州, 美国

纬度: 35-04-03N, 经度: 077-02-50W, 海拔: 5米

当前天气观测

该预报发布于50分钟前的09:54 UTC
风速20节,风向北转西北,有时为28节阵风
温度 12°C
湿度 58%
气压 1015 hPa
能見度: 16.1公里
天空无云

METAR: KEWN 210954Z 33020G28KT 10SM CLR 12/04 A2996 RMK AO2 PK WND 31029/0940 SLP145 T01220039

时间: 06:44 (10:44 UTC)

预报

该预报发布于5小时和15分钟前的05:29 UTC
预报有效从21日的 06点(UTC)到 22日的 06点(UTC)
风速9节,风向西转西北,有时为17节阵风
能見度: 10公里
少量云层高于5000英尺
从 21日的 0900点(UTC)
风速13节,风向西北,有时为24节阵风
能見度: 10公里
少量云层高于25000英尺
从 21日的 2000点(UTC)
风速8节,风向北转西北
能見度: 10公里
天空无云
从 22日的 0000点(UTC)
风速3节,风向多变
能見度: 10公里
天空无云

TAF: KEWN 210529Z 2106/2206 30009G17KT P6SM FEW050 FM210900 32013G24KT P6SM FEW250 FM212000 34008KT P6SM SKC FM220000 VRB03KT P6SM SKC

超过4000个机场的气象观测和天气预报(METAR&TAF报告)。

可查询的气象台以黄色和红色小点在地图上表示。

将鼠标移到小点上方,可查看气象台名称。

然后点击查看天气观测和预报。

如需切换地图:点击带黑十字的绿色按钮放大地图;点击带横线的绿色按钮缩小地图;或者点击绿色箭头查看邻近地区的地图。


METAR-TAF: